createdAt,value
2016-12-30T00:00:51.997Z,48.2
2016-12-30T00:03:24.313Z,48.2
2016-12-30T00:05:56.638Z,48.2
2016-12-30T00:08:28.960Z,48.2
2016-12-30T00:11:01.276Z,48.1
2016-12-30T00:13:33.786Z,48.2
2016-12-30T00:16:06.121Z,48.1
2016-12-30T00:18:38.449Z,48.2
2016-12-30T00:21:10.774Z,48.2
2016-12-30T00:23:43.094Z,48.2
2016-12-30T00:26:15.396Z,48.1
2016-12-30T00:28:47.710Z,48.2
2016-12-30T00:31:20.034Z,48.2
2016-12-30T00:33:52.342Z,48.2
2016-12-30T00:36:24.660Z,48.2
2016-12-30T00:38:56.976Z,48
2016-12-30T00:41:29.312Z,48.1
2016-12-30T00:44:01.642Z,48.1
2016-12-30T00:46:33.959Z,48.1
2016-12-30T00:49:06.277Z,48.1
2016-12-30T00:51:38.595Z,48.1
2016-12-30T00:54:10.915Z,48
2016-12-30T00:56:43.251Z,48
2016-12-30T00:59:15.572Z,48
2016-12-30T01:01:47.899Z,48
2016-12-30T01:04:20.220Z,48
2016-12-30T01:06:52.546Z,48
2016-12-30T01:09:24.860Z,48
2016-12-30T01:11:57.163Z,47.9
2016-12-30T01:14:29.513Z,47.9
2016-12-30T01:17:01.829Z,48
2016-12-30T01:19:34.153Z,47.9
2016-12-30T01:22:06.493Z,47.9
2016-12-30T01:24:38.800Z,48
2016-12-30T01:27:11.146Z,47.9
2016-12-30T01:29:43.449Z,47.9
2016-12-30T01:32:15.781Z,47.9
2016-12-30T01:34:48.095Z,47.9
2016-12-30T01:37:20.429Z,47.9
2016-12-30T01:39:52.748Z,47.9
2016-12-30T01:42:25.078Z,47.9
2016-12-30T01:44:57.409Z,47.8
2016-12-30T01:47:29.913Z,47.9
2016-12-30T01:50:02.227Z,47.9
2016-12-30T01:52:34.560Z,47.8
2016-12-30T01:55:06.877Z,47.9
2016-12-30T01:57:39.203Z,47.8
2016-12-30T02:00:11.542Z,47.8
2016-12-30T02:02:43.855Z,47.8
2016-12-30T02:05:16.203Z,47.8
2016-12-30T02:07:48.506Z,47.8
2016-12-30T02:10:20.814Z,47.8
2016-12-30T02:12:53.126Z,47.8
2016-12-30T02:15:25.445Z,47.8
2016-12-30T02:17:57.753Z,47.8
2016-12-30T02:20:30.076Z,47.8
2016-12-30T02:23:02.408Z,47.8
2016-12-30T02:25:34.723Z,47.8
2016-12-30T02:28:07.031Z,47.8
2016-12-30T02:30:39.356Z,47.8
2016-12-30T02:33:11.662Z,47.8
2016-12-30T02:35:43.975Z,47.8
2016-12-30T02:38:16.289Z,47.8
2016-12-30T02:40:48.618Z,47.7
2016-12-30T02:43:21.355Z,47.8
2016-12-30T02:45:53.673Z,47.7
2016-12-30T02:48:25.999Z,47.8
2016-12-30T02:50:58.299Z,47.7
2016-12-30T02:53:30.637Z,47.7
2016-12-30T02:56:02.952Z,47.7
2016-12-30T02:58:35.263Z,47.7
2016-12-30T03:01:07.580Z,47.8
2016-12-30T03:03:39.909Z,47.7
2016-12-30T03:06:12.217Z,47.7
2016-12-30T03:08:44.540Z,47.7
2016-12-30T03:11:16.854Z,47.7
2016-12-30T03:13:49.179Z,47.7
2016-12-30T03:16:21.506Z,47.7
2016-12-30T03:18:53.808Z,47.7
2016-12-30T03:21:26.123Z,47.7
2016-12-30T03:23:58.442Z,47.7
2016-12-30T03:26:30.739Z,47.7
2016-12-30T03:29:03.047Z,47.7
2016-12-30T03:31:35.386Z,47.7
2016-12-30T03:34:07.706Z,47.7
2016-12-30T03:36:40.008Z,47.6
2016-12-30T03:39:12.345Z,47.7
2016-12-30T03:41:44.661Z,47.7
2016-12-30T03:44:17.001Z,47.7
2016-12-30T03:46:49.310Z,47.7
2016-12-30T03:49:21.621Z,47.6
2016-12-30T03:51:53.949Z,47.7
2016-12-30T03:54:26.259Z,47.7
2016-12-30T03:56:58.586Z,47.7
2016-12-30T03:59:30.900Z,47.7
2016-12-30T04:02:03.202Z,47.7
2016-12-30T04:04:35.520Z,47.6
2016-12-30T04:07:07.852Z,47.7
2016-12-30T04:09:40.156Z,47.6
2016-12-30T04:12:12.462Z,47.7
2016-12-30T04:14:44.776Z,47.6
2016-12-30T04:17:17.091Z,47.6
2016-12-30T04:19:49.420Z,47.7
2016-12-30T04:22:21.722Z,47.6
2016-12-30T04:24:54.042Z,47.6
2016-12-30T04:27:26.361Z,47.6
2016-12-30T04:29:58.686Z,47.6
2016-12-30T04:32:30.992Z,47.6
2016-12-30T04:35:03.313Z,47.7
2016-12-30T04:37:35.633Z,47.7
2016-12-30T04:40:07.955Z,47.6
2016-12-30T04:42:40.284Z,47.6
2016-12-30T04:45:12.789Z,47.6
2016-12-30T04:47:45.530Z,47.6
2016-12-30T04:50:17.849Z,47.6
2016-12-30T04:52:50.151Z,47.6
2016-12-30T04:55:22.476Z,47.6
2016-12-30T04:57:54.799Z,47.6
2016-12-30T05:00:27.096Z,47.5
2016-12-30T05:02:59.421Z,47.6
2016-12-30T05:05:31.735Z,47.6
2016-12-30T05:08:04.064Z,47.5
2016-12-30T05:10:36.384Z,47.5
2016-12-30T05:13:08.711Z,47.5
2016-12-30T05:15:41.034Z,47.5
2016-12-30T05:18:13.350Z,47.5
2016-12-30T05:20:45.671Z,47.4
2016-12-30T05:23:17.982Z,47.5
2016-12-30T05:25:50.306Z,47.4
2016-12-30T05:28:22.605Z,47.4
2016-12-30T05:30:54.920Z,47.3
2016-12-30T05:33:27.254Z,47.4
2016-12-30T05:35:59.591Z,47.3
2016-12-30T05:38:31.922Z,47.4
2016-12-30T05:41:04.229Z,47.4
2016-12-30T05:43:37.191Z,47.3
2016-12-30T05:46:09.501Z,47.3
2016-12-30T05:48:41.819Z,47.3
2016-12-30T05:51:14.133Z,47.3
2016-12-30T05:53:46.450Z,47.3
2016-12-30T05:56:18.803Z,47.6
2016-12-30T05:58:51.294Z,47.9
2016-12-30T06:01:23.616Z,47.8
2016-12-30T06:04:27.176Z,48
2016-12-30T06:07:11.284Z,47.7
2016-12-30T06:09:43.604Z,47.5
2016-12-30T06:12:15.928Z,47.5
2016-12-30T06:14:48.262Z,47.3
2016-12-30T06:17:20.864Z,47.3
2016-12-30T06:19:53.341Z,47.7
2016-12-30T06:22:25.659Z,47.8
2016-12-30T06:24:57.994Z,48
2016-12-30T06:27:30.310Z,48
2016-12-30T06:30:02.635Z,48.2
2016-12-30T06:32:34.973Z,48.1
2016-12-30T06:35:07.283Z,48.1
2016-12-30T06:37:39.620Z,48.1
2016-12-30T06:40:11.929Z,48.1
2016-12-30T06:42:44.659Z,48
2016-12-30T06:45:16.959Z,47.9
2016-12-30T06:47:49.277Z,48.1
2016-12-30T06:50:21.589Z,47.9
2016-12-30T06:52:53.917Z,47.8
2016-12-30T06:55:26.256Z,47.8
2016-12-30T06:57:58.589Z,47.8
2016-12-30T07:00:30.930Z,47.7
2016-12-30T07:03:03.253Z,47.7
2016-12-30T07:05:37.367Z,47.7
2016-12-30T07:08:11.184Z,47.7
2016-12-30T07:10:44.469Z,47.7
2016-12-30T07:13:16.806Z,47.7
2016-12-30T07:15:49.186Z,47.7
2016-12-30T07:18:21.524Z,47.7
2016-12-30T07:20:53.838Z,47.7
2016-12-30T07:23:26.237Z,47.6
2016-12-30T07:25:58.815Z,47.7
2016-12-30T07:28:31.267Z,47.7
2016-12-30T07:31:03.590Z,47.7
2016-12-30T07:33:35.895Z,47.6
2016-12-30T07:36:08.200Z,47.4
2016-12-30T07:38:40.533Z,47.3
2016-12-30T07:41:12.863Z,47.3
2016-12-30T07:43:45.167Z,47.4
2016-12-30T07:46:17.508Z,47.1
2016-12-30T07:48:49.825Z,47.1
2016-12-30T07:51:22.180Z,47.1
2016-12-30T07:53:54.503Z,47.1
2016-12-30T07:56:26.831Z,47.1
2016-12-30T07:58:59.153Z,47.1
2016-12-30T08:01:31.477Z,47.1
2016-12-30T08:04:03.799Z,47.1
2016-12-30T08:06:36.123Z,47.4
2016-12-30T08:09:08.451Z,47.3
2016-12-30T08:11:40.754Z,47.5
2016-12-30T08:14:13.087Z,47.6
2016-12-30T08:16:45.419Z,47.7
2016-12-30T08:19:17.731Z,47.8
2016-12-30T08:21:50.066Z,47.8
2016-12-30T08:24:22.796Z,47.9
2016-12-30T08:26:55.118Z,48
2016-12-30T08:29:27.433Z,47.9
2016-12-30T08:31:59.760Z,48
2016-12-30T08:34:32.094Z,48
2016-12-30T08:37:04.419Z,48
2016-12-30T08:39:36.728Z,48
2016-12-30T08:42:09.059Z,48
2016-12-30T08:44:41.386Z,48
2016-12-30T08:47:13.754Z,48
2016-12-30T08:49:46.179Z,48
2016-12-30T08:52:18.553Z,48
2016-12-30T08:54:50.969Z,48
2016-12-30T08:57:23.343Z,48
2016-12-30T08:59:55.761Z,47.9
2016-12-30T09:02:28.331Z,48
2016-12-30T09:05:00.733Z,48
2016-12-30T09:07:33.109Z,48
2016-12-30T09:10:05.520Z,48.1
2016-12-30T09:12:37.917Z,48.1
2016-12-30T09:15:10.292Z,48.1
2016-12-30T09:17:42.677Z,48.1
2016-12-30T09:20:15.078Z,48.2
2016-12-30T09:22:48.119Z,48.2
2016-12-30T09:25:20.517Z,48.2
2016-12-30T09:27:52.897Z,48.2
2016-12-30T09:30:25.286Z,48.1
2016-12-30T09:32:57.659Z,48.1
2016-12-30T09:35:30.064Z,48.1
2016-12-30T09:38:03.086Z,48
2016-12-30T09:40:35.482Z,47.9
2016-12-30T09:43:07.860Z,47.9
2016-12-30T09:45:40.239Z,47.9
2016-12-30T09:48:12.667Z,48
2016-12-30T09:50:45.063Z,47.8
2016-12-30T09:53:17.461Z,47.8
2016-12-30T09:55:49.857Z,47.8
2016-12-30T09:58:22.258Z,47.7
2016-12-30T10:00:54.676Z,47.8
2016-12-30T10:03:27.082Z,47.8
2016-12-30T10:05:59.483Z,47.9
2016-12-30T10:08:31.871Z,48.1
2016-12-30T10:11:04.269Z,48.3
2016-12-30T10:13:36.672Z,48.5
2016-12-30T10:16:09.064Z,48.6
2016-12-30T10:18:41.469Z,48.6
2016-12-30T10:21:13.843Z,48.6
2016-12-30T10:23:46.226Z,48.6
2016-12-30T10:26:18.628Z,48.6
2016-12-30T10:28:51.019Z,48.5
2016-12-30T10:31:23.418Z,48.4
2016-12-30T10:33:55.817Z,48.5
2016-12-30T10:36:28.219Z,48.5
2016-12-30T10:39:00.598Z,48.4
2016-12-30T10:41:33.002Z,48.3
2016-12-30T10:44:05.392Z,48.2
2016-12-30T10:46:37.796Z,48
2016-12-30T10:49:10.180Z,47.8
2016-12-30T10:51:42.574Z,47.7
2016-12-30T10:54:15.176Z,47.6
2016-12-30T10:56:47.570Z,47.6
2016-12-30T10:59:19.958Z,47.6
2016-12-30T11:01:52.365Z,47.4
2016-12-30T11:04:24.757Z,47.4
2016-12-30T11:06:57.171Z,47.4
2016-12-30T11:09:29.590Z,47.4
2016-12-30T11:12:02.003Z,47.4
2016-12-30T11:14:34.384Z,47.5
2016-12-30T11:17:06.773Z,47.6
2016-12-30T11:19:39.161Z,47.4
2016-12-30T11:22:11.567Z,47.4
2016-12-30T11:24:43.974Z,47.4
2016-12-30T11:27:16.371Z,47.4
2016-12-30T11:29:48.738Z,47.4
2016-12-30T11:32:21.138Z,47.4
2016-12-30T11:34:53.518Z,47.4
2016-12-30T11:37:25.901Z,47.4
2016-12-30T11:39:58.281Z,47.4
2016-12-30T11:42:30.673Z,47.4
2016-12-30T11:45:03.068Z,47.4
2016-12-30T11:47:35.455Z,47.4
2016-12-30T11:50:07.855Z,47.4
2016-12-30T11:52:40.237Z,47.4
2016-12-30T11:55:12.637Z,47.3
2016-12-30T11:57:45.027Z,47.3
2016-12-30T12:00:17.422Z,47.3
2016-12-30T12:02:49.877Z,47.2
2016-12-30T12:05:22.269Z,47.2
2016-12-30T12:07:54.642Z,47.2
2016-12-30T12:10:27.073Z,47.2
2016-12-30T12:12:59.477Z,47.2
2016-12-30T12:15:31.860Z,47.2
2016-12-30T12:18:04.288Z,47.2
2016-12-30T12:20:36.693Z,47.2
2016-12-30T12:23:09.080Z,47.2
2016-12-30T12:25:41.470Z,47.2
2016-12-30T12:28:13.865Z,47.2
2016-12-30T12:30:46.269Z,47.3
2016-12-30T12:33:18.660Z,47.3
2016-12-30T12:35:51.041Z,47.4
2016-12-30T12:38:23.458Z,47.4
2016-12-30T12:40:55.858Z,47.4
2016-12-30T12:43:28.238Z,47.5
2016-12-30T12:46:00.631Z,46.1
2016-12-30T12:48:33.039Z,44
2016-12-30T12:51:06.135Z,43
2016-12-30T12:53:43.424Z,41.4
2016-12-30T12:56:25.322Z,39.1
2016-12-30T12:59:04.766Z,38.6
2016-12-30T13:01:49.851Z,37.9
2016-12-30T13:04:30.933Z,39
2016-12-30T13:07:06.389Z,39.8
2016-12-30T13:09:39.096Z,40.2
2016-12-30T13:12:11.468Z,40.3
2016-12-30T13:14:44.016Z,39.2
2016-12-30T13:17:16.432Z,40.6
2016-12-30T13:19:49.052Z,41.6
2016-12-30T13:22:21.442Z,41.8
2016-12-30T13:24:53.897Z,42.5
2016-12-30T13:27:26.508Z,42.9
2016-12-30T13:29:58.921Z,43.1
2016-12-30T13:32:31.308Z,43.2
2016-12-30T13:35:03.680Z,43.7
2016-12-30T13:37:36.101Z,44.4
2016-12-30T13:40:08.491Z,45.1
2016-12-30T13:42:40.895Z,45.6
2016-12-30T13:45:13.290Z,45.9
2016-12-30T13:47:45.701Z,46
2016-12-30T13:50:18.096Z,46.2
2016-12-30T13:52:50.502Z,46.2
2016-12-30T13:55:22.899Z,46.2
2016-12-30T13:57:55.324Z,46
2016-12-30T14:00:27.725Z,46.2
2016-12-30T14:03:00.136Z,46.4
2016-12-30T14:05:32.529Z,46.5
2016-12-30T14:08:04.907Z,46.5
2016-12-30T14:10:37.305Z,46.5
2016-12-30T14:13:09.706Z,46.5
2016-12-30T14:15:42.107Z,46.5
2016-12-30T14:18:14.503Z,46.5
2016-12-30T14:20:46.895Z,46.4
2016-12-30T14:23:19.302Z,46.3
2016-12-30T14:25:51.690Z,46.2
2016-12-30T14:28:24.089Z,46.1
2016-12-30T14:30:56.466Z,46.1
2016-12-30T14:33:28.883Z,46
2016-12-30T14:36:01.281Z,45.9
2016-12-30T14:38:33.679Z,45.9
2016-12-30T14:41:06.108Z,45.9
2016-12-30T14:43:38.489Z,46
2016-12-30T14:46:10.895Z,46
2016-12-30T14:48:43.308Z,45.9
2016-12-30T14:51:15.717Z,46
2016-12-30T14:53:48.138Z,46.1
2016-12-30T14:56:20.537Z,46.4
2016-12-30T14:58:52.920Z,46.6
2016-12-30T15:01:25.320Z,46.9
2016-12-30T15:03:57.734Z,46.9
2016-12-30T15:06:30.142Z,46.9
2016-12-30T15:09:02.534Z,46.9
2016-12-30T15:11:34.926Z,46.9
2016-12-30T15:14:07.333Z,46.9
2016-12-30T15:16:39.727Z,46.9
2016-12-30T15:19:12.131Z,46.1
2016-12-30T15:21:44.609Z,46.1
2016-12-30T15:24:19.526Z,45.8
2016-12-30T15:26:52.335Z,45.7
2016-12-30T15:29:24.718Z,44.1
2016-12-30T15:31:57.133Z,44.3
2016-12-30T15:34:29.533Z,45.1
2016-12-30T15:37:01.935Z,45.8
2016-12-30T15:39:34.327Z,45.9
2016-12-30T15:42:06.733Z,45.9
2016-12-30T15:44:39.126Z,46
2016-12-30T15:47:11.511Z,46
2016-12-30T15:49:43.919Z,46.1
2016-12-30T15:52:16.291Z,46
2016-12-30T15:54:48.697Z,46.1
2016-12-30T15:57:21.101Z,46
2016-12-30T15:59:53.496Z,46
2016-12-30T16:02:25.897Z,46
2016-12-30T16:04:58.295Z,46
2016-12-30T16:07:30.684Z,46
2016-12-30T16:10:03.068Z,46.1
2016-12-30T16:12:35.660Z,46.1
2016-12-30T16:15:08.083Z,46.4
2016-12-30T16:17:40.504Z,46.4
2016-12-30T16:20:12.890Z,46.4
2016-12-30T16:22:45.279Z,46.4
2016-12-30T16:25:17.682Z,46.6
2016-12-30T16:27:50.067Z,46.6
2016-12-30T16:30:22.442Z,46.6
2016-12-30T16:32:54.851Z,46.6
2016-12-30T16:35:27.260Z,47.1
2016-12-30T16:37:59.649Z,47.1
2016-12-30T16:40:32.054Z,46.9
2016-12-30T16:43:04.450Z,47.1
2016-12-30T16:45:36.842Z,47.1
2016-12-30T16:48:09.216Z,47.1
2016-12-30T16:50:41.600Z,46.9
2016-12-30T16:53:13.993Z,46.7
2016-12-30T16:55:46.374Z,46.6
2016-12-30T16:58:18.743Z,46.6
2016-12-30T17:00:51.142Z,46.6
2016-12-30T17:03:23.542Z,46.4
2016-12-30T17:05:55.926Z,46.4
2016-12-30T17:08:28.324Z,46.3
2016-12-30T17:11:00.728Z,46.4
2016-12-30T17:13:33.121Z,46.4
2016-12-30T17:16:05.521Z,46.4
2016-12-30T17:18:37.916Z,46.4
2016-12-30T17:21:10.317Z,46.4
2016-12-30T17:23:42.707Z,46.3
2016-12-30T17:26:15.093Z,46.3
2016-12-30T17:28:47.498Z,46.4
2016-12-30T17:31:19.898Z,46.4
2016-12-30T17:33:52.317Z,46.5
2016-12-30T17:36:25.341Z,46.6
2016-12-30T17:38:57.720Z,46.7
2016-12-30T17:41:30.113Z,46.9
2016-12-30T17:44:02.538Z,46.9
2016-12-30T17:46:34.945Z,46.9
2016-12-30T17:49:07.343Z,46.9
2016-12-30T17:51:39.732Z,46.9
2016-12-30T17:54:12.106Z,46.7
2016-12-30T17:56:44.940Z,46.6
2016-12-30T17:59:17.330Z,46.6
2016-12-30T18:01:49.763Z,46.6
2016-12-30T18:04:22.157Z,46.6
2016-12-30T18:06:54.563Z,46.6
2016-12-30T18:09:26.947Z,46.4
2016-12-30T18:11:59.322Z,46.4
2016-12-30T18:14:31.735Z,46.4
2016-12-30T18:17:04.128Z,46.4
2016-12-30T18:19:36.530Z,46.4
2016-12-30T18:22:08.922Z,46.4
2016-12-30T18:24:41.330Z,46.4
2016-12-30T18:27:13.728Z,46.4
2016-12-30T18:29:46.125Z,46.4
2016-12-30T18:32:18.528Z,46.4
2016-12-30T18:34:50.904Z,46.4
2016-12-30T18:37:23.307Z,46.4
2016-12-30T18:39:55.691Z,46.4
2016-12-30T18:42:28.094Z,46.6
2016-12-30T18:45:00.489Z,46.6
2016-12-30T18:47:32.892Z,46.6
2016-12-30T18:50:05.286Z,46.6
2016-12-30T18:52:37.868Z,46.6
2016-12-30T18:55:10.253Z,46.6
2016-12-30T18:57:42.640Z,46.6
2016-12-30T19:00:15.038Z,46.6
2016-12-30T19:02:47.430Z,46.6
2016-12-30T19:05:19.822Z,46.6
2016-12-30T19:07:52.226Z,46.6
2016-12-30T19:10:24.642Z,46.6
2016-12-30T19:12:57.049Z,46.6
2016-12-30T19:15:29.423Z,46.6
2016-12-30T19:18:01.824Z,46.6
2016-12-30T19:20:34.211Z,46.6
2016-12-30T19:23:06.603Z,46.6
2016-12-30T19:25:39.008Z,46.6
2016-12-30T19:28:11.402Z,46.6
2016-12-30T19:30:43.804Z,46.6
2016-12-30T19:33:16.206Z,46.6
2016-12-30T19:35:48.641Z,46.6
2016-12-30T19:38:21.015Z,46.6
2016-12-30T19:40:53.418Z,46.6
2016-12-30T19:43:25.791Z,46.6
2016-12-30T19:45:58.195Z,46.6
2016-12-30T19:48:30.592Z,46.6
2016-12-30T19:51:02.991Z,46.7
2016-12-30T19:53:35.385Z,46.7
2016-12-30T19:56:07.809Z,46.7
2016-12-30T19:58:40.195Z,46.7
2016-12-30T20:01:12.601Z,46.7
2016-12-30T20:03:45.008Z,46.8
2016-12-30T20:06:17.383Z,46.8
2016-12-30T20:08:49.794Z,46.8
2016-12-30T20:11:22.186Z,46.8
2016-12-30T20:13:54.598Z,46.8
2016-12-30T20:16:26.992Z,46.8
2016-12-30T20:18:59.390Z,46.8
2016-12-30T20:21:31.793Z,46.8
2016-12-30T20:24:04.188Z,46.8
2016-12-30T20:26:36.571Z,46.8
2016-12-30T20:29:08.939Z,46.7
2016-12-30T20:31:41.358Z,46.8
2016-12-30T20:34:13.749Z,46.6
2016-12-30T20:36:46.131Z,46.7
2016-12-30T20:39:18.512Z,46.7
2016-12-30T20:41:50.894Z,46.7
2016-12-30T20:44:23.294Z,46.8
2016-12-30T20:46:55.689Z,46.8
2016-12-30T20:49:28.089Z,46.8
2016-12-30T20:52:00.473Z,46.8
2016-12-30T20:54:32.862Z,46.8
2016-12-30T20:57:05.259Z,46.8
2016-12-30T20:59:37.655Z,46.8
2016-12-30T21:02:10.078Z,46.7
2016-12-30T21:04:43.116Z,46.8
2016-12-30T21:07:15.508Z,46.8
2016-12-30T21:09:47.903Z,46.9
2016-12-30T21:12:20.298Z,46.8
2016-12-30T21:14:52.695Z,46.9
2016-12-30T21:17:25.074Z,46.9
2016-12-30T21:19:57.480Z,46.9
2016-12-30T21:22:29.884Z,46.9
2016-12-30T21:25:02.288Z,46.7
2016-12-30T21:27:35.301Z,46.7
2016-12-30T21:30:07.681Z,46.7
2016-12-30T21:32:40.059Z,46.6
2016-12-30T21:35:12.457Z,46.6
2016-12-30T21:37:44.848Z,46.6
2016-12-30T21:40:17.255Z,46.6
2016-12-30T21:42:49.642Z,46.6
2016-12-30T21:45:22.018Z,46.6
2016-12-30T21:47:54.441Z,46.4
2016-12-30T21:50:26.831Z,46.4
2016-12-30T21:52:59.236Z,46.4
2016-12-30T21:55:31.619Z,46.4
2016-12-30T21:58:04.008Z,46.4
2016-12-30T22:00:36.409Z,46.4
2016-12-30T22:03:08.800Z,46.2
2016-12-30T22:05:41.213Z,46.2
2016-12-30T22:08:13.585Z,46.2
2016-12-30T22:10:45.965Z,46.2
2016-12-30T22:13:18.353Z,46.2
2016-12-30T22:15:50.748Z,46.2
2016-12-30T22:18:23.135Z,46.2
2016-12-30T22:20:55.517Z,46.2
2016-12-30T22:23:27.912Z,46.2
2016-12-30T22:26:00.299Z,46.4
2016-12-30T22:28:32.687Z,46.4
2016-12-30T22:31:05.115Z,46.5
2016-12-30T22:33:37.519Z,46.6
2016-12-30T22:36:09.915Z,46.7
2016-12-30T22:38:42.295Z,46.7
2016-12-30T22:41:14.694Z,46.7
2016-12-30T22:43:47.084Z,46.7
2016-12-30T22:46:19.495Z,46.7
2016-12-30T22:48:51.887Z,46.7
2016-12-30T22:51:24.279Z,46.7
2016-12-30T22:53:56.698Z,46.7
2016-12-30T22:56:29.111Z,46.7
2016-12-30T22:59:01.494Z,46.7
2016-12-30T23:01:33.872Z,46.6
2016-12-30T23:04:06.258Z,46.5
2016-12-30T23:06:38.653Z,46.5
2016-12-30T23:09:11.035Z,46.5
2016-12-30T23:11:43.449Z,46.5
2016-12-30T23:14:15.831Z,46.5
2016-12-30T23:16:48.261Z,46.4
2016-12-30T23:19:20.633Z,46.4
2016-12-30T23:21:53.033Z,46.5
2016-12-30T23:24:25.411Z,46.5
2016-12-30T23:26:57.789Z,46.5
2016-12-30T23:29:30.196Z,46.5
2016-12-30T23:32:02.605Z,46.4
2016-12-30T23:34:35.006Z,46.4
2016-12-30T23:37:07.397Z,46.4
2016-12-30T23:39:39.810Z,46.4
2016-12-30T23:42:12.184Z,46.4
2016-12-30T23:44:44.579Z,46.4
2016-12-30T23:47:16.959Z,46.4
2016-12-30T23:49:49.371Z,46.4
2016-12-30T23:52:21.773Z,46.4
2016-12-30T23:54:54.159Z,46.3
2016-12-30T23:57:26.554Z,46.3
2016-12-30T23:59:58.943Z,46.4
